sensor_id;sensor_type;location;lat;lon;timestamp;pressure;altitude;pressure_sealevel;temperature;humidity
75146;BME280;63641;46.526;24.612;2023-05-10T00:00:20;97790.28;;;5.25;63.88
75146;BME280;63641;46.526;24.612;2023-05-10T00:02:49;97798.25;;;5.20;63.86
75146;BME280;63641;46.526;24.612;2023-05-10T00:05:16;97794.63;;;5.14;64.08
75146;BME280;63641;46.526;24.612;2023-05-10T00:07:43;97784.25;;;5.06;64.05
75146;BME280;63641;46.526;24.612;2023-05-10T00:10:13;97780.63;;;5.00;64.25
75146;BME280;63641;46.526;24.612;2023-05-10T00:12:40;97781.94;;;4.98;64.25
75146;BME280;63641;46.526;24.612;2023-05-10T00:15:09;97789.50;;;4.89;64.40
75146;BME280;63641;46.526;24.612;2023-05-10T00:17:36;97775.53;;;4.75;64.48
75146;BME280;63641;46.526;24.612;2023-05-10T00:20:03;97770.84;;;4.71;64.55
75146;BME280;63641;46.526;24.612;2023-05-10T00:22:31;97767.00;;;4.67;64.63
75146;BME280;63641;46.526;24.612;2023-05-10T00:24:59;97765.25;;;4.60;64.76
75146;BME280;63641;46.526;24.612;2023-05-10T00:27:25;97762.09;;;4.64;64.87
75146;BME280;63641;46.526;24.612;2023-05-10T00:29:52;97772.47;;;4.60;64.75
75146;BME280;63641;46.526;24.612;2023-05-10T00:32:19;97765.59;;;4.52;64.92
75146;BME280;63641;46.526;24.612;2023-05-10T00:34:46;97769.56;;;4.50;65.04
75146;BME280;63641;46.526;24.612;2023-05-10T00:37:13;97766.16;;;4.43;64.86
75146;BME280;63641;46.526;24.612;2023-05-10T00:39:39;97744.69;;;4.19;65.46
75146;BME280;63641;46.526;24.612;2023-05-10T00:42:06;97770.09;;;4.28;65.66
75146;BME280;63641;46.526;24.612;2023-05-10T00:44:33;97764.84;;;4.22;65.84
75146;BME280;63641;46.526;24.612;2023-05-10T00:47:00;97777.41;;;4.21;65.63
75146;BME280;63641;46.526;24.612;2023-05-10T00:49:27;97771.34;;;4.14;65.91
75146;BME280;63641;46.526;24.612;2023-05-10T00:51:54;97772.03;;;4.09;66.12
75146;BME280;63641;46.526;24.612;2023-05-10T00:54:21;97780.53;;;4.06;66.16
75146;BME280;63641;46.526;24.612;2023-05-10T00:56:48;97783.66;;;4.03;66.33
75146;BME280;63641;46.526;24.612;2023-05-10T00:59:16;97780.38;;;4.01;66.62
75146;BME280;63641;46.526;24.612;2023-05-10T01:01:47;97777.56;;;3.96;66.60
75146;BME280;63641;46.526;24.612;2023-05-10T01:04:15;97777.34;;;3.98;67.22
75146;BME280;63641;46.526;24.612;2023-05-10T01:06:42;97771.66;;;3.94;66.78
75146;BME280;63641;46.526;24.612;2023-05-10T01:09:10;97781.88;;;3.97;66.75
75146;BME280;63641;46.526;24.612;2023-05-10T01:11:38;97774.09;;;3.96;66.78
75146;BME280;63641;46.526;24.612;2023-05-10T01:14:06;97770.81;;;3.94;66.62
75146;BME280;63641;46.526;24.612;2023-05-10T01:16:37;97771.16;;;3.97;66.60
75146;BME280;63641;46.526;24.612;2023-05-10T01:19:26;97771.84;;;3.93;66.96
75146;BME280;63641;46.526;24.612;2023-05-10T01:22:03;97764.84;;;3.80;66.83
75146;BME280;63641;46.526;24.612;2023-05-10T01:27:17;97763.66;;;3.76;66.64
75146;BME280;63641;46.526;24.612;2023-05-10T01:35:46;97764.28;;;3.59;66.49
75146;BME280;63641;46.526;24.612;2023-05-10T01:38:44;97760.72;;;3.47;66.72
75146;BME280;63641;46.526;24.612;2023-05-10T01:41:14;97762.34;;;3.48;66.92
75146;BME280;63641;46.526;24.612;2023-05-10T01:44:01;97755.09;;;3.37;66.81
75146;BME280;63641;46.526;24.612;2023-05-10T01:46:35;97758.38;;;3.39;66.92
75146;BME280;63641;46.526;24.612;2023-05-10T01:49:14;97765.78;;;3.37;67.01
75146;BME280;63641;46.526;24.612;2023-05-10T01:51:47;97752.66;;;3.35;66.91
75146;BME280;63641;46.526;24.612;2023-05-10T01:54:17;97759.38;;;3.38;66.85
75146;BME280;63641;46.526;24.612;2023-05-10T01:56:48;97752.84;;;3.34;66.98
75146;BME280;63641;46.526;24.612;2023-05-10T01:59:18;97749.81;;;3.30;67.21
75146;BME280;63641;46.526;24.612;2023-05-10T02:01:47;97752.72;;;3.29;67.14
75146;BME280;63641;46.526;24.612;2023-05-10T02:04:16;97748.25;;;3.23;67.16
75146;BME280;63641;46.526;24.612;2023-05-10T02:06:45;97755.22;;;3.24;67.19
75146;BME280;63641;46.526;24.612;2023-05-10T02:09:14;97745.44;;;3.18;66.94
75146;BME280;63641;46.526;24.612;2023-05-10T02:11:43;97738.31;;;3.11;66.96
75146;BME280;63641;46.526;24.612;2023-05-10T02:14:11;97747.38;;;3.10;67.17
75146;BME280;63641;46.526;24.612;2023-05-10T02:16:39;97747.38;;;3.10;67.16
75146;BME280;63641;46.526;24.612;2023-05-10T02:19:07;97745.16;;;3.07;67.29
75146;BME280;63641;46.526;24.612;2023-05-10T02:21:35;97749.06;;;3.05;67.24
75146;BME280;63641;46.526;24.612;2023-05-10T02:24:04;97749.75;;;3.00;67.26
75146;BME280;63641;46.526;24.612;2023-05-10T02:26:32;97752.19;;;3.02;67.48
75146;BME280;63641;46.526;24.612;2023-05-10T02:29:02;97737.72;;;2.91;67.61
75146;BME280;63641;46.526;24.612;2023-05-10T02:31:33;97748.13;;;2.99;67.38
75146;BME280;63641;46.526;24.612;2023-05-10T02:34:02;97748.13;;;2.99;67.70
75146;BME280;63641;46.526;24.612;2023-05-10T02:36:30;97750.63;;;2.94;67.30
75146;BME280;63641;46.526;24.612;2023-05-10T02:38:59;97743.72;;;2.86;67.76
75146;BME280;63641;46.526;24.612;2023-05-10T02:41:31;97722.56;;;2.66;67.76
75146;BME280;63641;46.526;24.612;2023-05-10T02:43:59;97734.75;;;2.81;67.79
75146;BME280;63641;46.526;24.612;2023-05-10T02:46:27;97730.06;;;2.76;67.69
75146;BME280;63641;46.526;24.612;2023-05-10T02:48:54;97725.38;;;2.72;67.56
75146;BME280;63641;46.526;24.612;2023-05-10T02:51:24;97735.25;;;2.71;67.76
75146;BME280;63641;46.526;24.612;2023-05-10T02:53:53;97747.13;;;2.75;67.68
75146;BME280;63641;46.526;24.612;2023-05-10T02:56:25;97743.06;;;2.73;67.68
75146;BME280;63641;46.526;24.612;2023-05-10T02:58:55;97747.78;;;2.71;67.78
75146;BME280;63641;46.526;24.612;2023-05-10T03:01:22;97740.06;;;2.62;68.02
75146;BME280;63641;46.526;24.612;2023-05-10T03:03:49;97739.84;;;2.64;68.07
75146;BME280;63641;46.526;24.612;2023-05-10T03:06:15;97741.97;;;2.55;67.90
75146;BME280;63641;46.526;24.612;2023-05-10T03:08:43;97733.78;;;2.50;68.08
75146;BME280;63641;46.526;24.612;2023-05-10T03:14:02;97743.44;;;2.51;68.13
75146;BME280;63641;46.526;24.612;2023-05-10T03:16:44;97736.06;;;2.47;68.19
75146;BME280;63641;46.526;24.612;2023-05-10T03:19:22;97730.38;;;2.43;68.21
75146;BME280;63641;46.526;24.612;2023-05-10T03:21:52;97739.59;;;2.47;68.08
75146;BME280;63641;46.526;24.612;2023-05-10T03:24:21;97737.34;;;2.44;68.10
75146;BME280;63641;46.526;24.612;2023-05-10T03:26:50;97736.16;;;2.40;68.38
75146;BME280;63641;46.526;24.612;2023-05-10T03:29:18;97718.81;;;2.24;68.38
75146;BME280;63641;46.526;24.612;2023-05-10T03:31:46;97738.44;;;2.36;68.23
75146;BME280;63641;46.526;24.612;2023-05-10T03:34:13;97738.22;;;2.38;68.13
75146;BME280;63641;46.526;24.612;2023-05-10T03:36:39;97739.25;;;2.37;68.25
75146;BME280;63641;46.526;24.612;2023-05-10T03:39:06;97744.16;;;2.40;68.23
75146;BME280;63641;46.526;24.612;2023-05-10T03:41:33;97736.16;;;2.40;68.37
75146;BME280;63641;46.526;24.612;2023-05-10T03:43:59;97738.22;;;2.38;68.29
75146;BME280;63641;46.526;24.612;2023-05-10T03:46:27;97729.78;;;2.41;68.59
75146;BME280;63641;46.526;24.612;2023-05-10T03:48:53;97728.72;;;2.42;68.42
75146;BME280;63641;46.526;24.612;2023-05-10T03:51:20;97734.69;;;2.44;68.67
75146;BME280;63641;46.526;24.612;2023-05-10T03:53:47;97726.28;;;2.40;68.78
75146;BME280;63641;46.526;24.612;2023-05-10T03:56:13;97737.94;;;2.46;68.77
75146;BME280;63641;46.526;24.612;2023-05-10T03:58:40;97719.53;;;2.38;69.15
75146;BME280;63641;46.526;24.612;2023-05-10T04:01:07;97718.84;;;2.42;68.94
75146;BME280;63641;46.526;24.612;2023-05-10T04:03:34;97726.00;;;2.49;69.25
75146;BME280;63641;46.526;24.612;2023-05-10T04:06:03;97716.56;;;2.46;69.21
75146;BME280;63641;46.526;24.612;2023-05-10T04:08:31;97724.53;;;2.53;69.60
75146;BME280;63641;46.526;24.612;2023-05-10T04:11:08;97710.78;;;2.49;69.81
75146;BME280;63641;46.526;24.612;2023-05-10T04:13:35;97727.50;;;2.63;69.80
75146;BME280;63641;46.526;24.612;2023-05-10T04:16:02;97734.72;;;2.62;69.58
75146;BME280;63641;46.526;24.612;2023-05-10T04:18:29;97714.97;;;2.63;69.61
75146;BME280;63641;46.526;24.612;2023-05-10T04:20:56;97712.72;;;2.60;69.94
75146;BME280;63641;46.526;24.612;2023-05-10T04:23:23;97725.38;;;2.72;70.08
75146;BME280;63641;46.526;24.612;2023-05-10T04:25:49;97724.94;;;2.75;70.10
75146;BME280;63641;46.526;24.612;2023-05-10T04:28:16;97729.41;;;2.81;70.13
75146;BME280;63641;46.526;24.612;2023-05-10T04:30:43;97738.97;;;2.88;70.10
75146;BME280;63641;46.526;24.612;2023-05-10T04:33:09;97723.16;;;2.87;70.50
75146;BME280;63641;46.526;24.612;2023-05-10T04:35:36;97733.34;;;2.97;70.25
75146;BME280;63641;46.526;24.612;2023-05-10T04:38:03;97729.25;;;2.94;70.72
75146;BME280;63641;46.526;24.612;2023-05-10T04:40:29;97725.06;;;2.98;70.73
75146;BME280;63641;46.526;24.612;2023-05-10T04:42:56;97727.47;;;3.06;71.01
75146;BME280;63641;46.526;24.612;2023-05-10T04:45:23;97726.81;;;3.11;70.93
75146;BME280;63641;46.526;24.612;2023-05-10T04:47:49;97726.94;;;3.16;71.06
75146;BME280;63641;46.526;24.612;2023-05-10T04:50:17;97716.25;;;3.16;70.97
75146;BME280;63641;46.526;24.612;2023-05-10T04:52:44;97727.22;;;3.26;71.24
75146;BME280;63641;46.526;24.612;2023-05-10T04:55:11;97731.31;;;3.29;71.22
75146;BME280;63641;46.526;24.612;2023-05-10T04:57:38;97723.06;;;3.30;71.61
75146;BME280;63641;46.526;24.612;2023-05-10T05:00:05;97726.72;;;3.36;71.93
75146;BME280;63641;46.526;24.612;2023-05-10T05:02:32;97715.41;;;3.34;71.75
75146;BME280;63641;46.526;24.612;2023-05-10T05:04:59;97721.50;;;3.41;71.90
75146;BME280;63641;46.526;24.612;2023-05-10T05:07:26;97718.06;;;3.52;72.46
75146;BME280;63641;46.526;24.612;2023-05-10T05:09:52;97730.09;;;3.61;72.28
75146;BME280;63641;46.526;24.612;2023-05-10T05:12:19;97728.13;;;3.69;72.78
75146;BME280;63641;46.526;24.612;2023-05-10T05:14:46;97725.13;;;3.77;72.66
75146;BME280;63641;46.526;24.612;2023-05-10T05:17:12;97723.75;;;3.86;72.29
75146;BME280;63641;46.526;24.612;2023-05-10T05:19:39;97719.13;;;3.93;72.63
75146;BME280;63641;46.526;24.612;2023-05-10T05:22:06;97710.63;;;3.96;72.47
75146;BME280;63641;46.526;24.612;2023-05-10T05:24:35;97722.19;;;4.08;72.78
75146;BME280;63641;46.526;24.612;2023-05-10T05:27:03;97713.69;;;4.11;72.45
75146;BME280;63641;46.526;24.612;2023-05-10T05:29:33;97721.97;;;4.22;72.74
75146;BME280;63641;46.526;24.612;2023-05-10T05:32:00;97717.44;;;4.34;73.00
75146;BME280;63641;46.526;24.612;2023-05-10T05:34:28;97707.69;;;4.40;72.99
75146;BME280;63641;46.526;24.612;2023-05-10T05:36:54;97719.56;;;4.55;73.03
75146;BME280;63641;46.526;24.612;2023-05-10T05:39:21;97706.88;;;4.63;72.60
75146;BME280;63641;46.526;24.612;2023-05-10T05:41:49;97710.94;;;4.77;72.95
75146;BME280;63641;46.526;24.612;2023-05-10T05:44:15;97710.72;;;4.90;72.77
75146;BME280;63641;46.526;24.612;2023-05-10T05:46:42;97707.03;;;5.08;72.21
75146;BME280;63641;46.526;24.612;2023-05-10T05:49:09;97713.09;;;5.27;72.04
75146;BME280;63641;46.526;24.612;2023-05-10T05:51:36;97711.41;;;5.38;72.12
75146;BME280;63641;46.526;24.612;2023-05-10T05:54:03;97723.59;;;5.57;71.74
75146;BME280;63641;46.526;24.612;2023-05-10T05:56:31;97720.38;;;5.72;71.87
75146;BME280;63641;46.526;24.612;2023-05-10T05:58:57;97712.03;;;5.85;71.32
75146;BME280;63641;46.526;24.612;2023-05-10T06:01:24;97708.44;;;6.08;70.84
75146;BME280;63641;46.526;24.612;2023-05-10T06:03:51;97714.00;;;6.35;70.24
75146;BME280;63641;46.526;24.612;2023-05-10T06:06:18;97704.06;;;6.52;69.83
75146;BME280;63641;46.526;24.612;2023-05-10T06:08:45;97710.63;;;6.78;69.03
75146;BME280;63641;46.526;24.612;2023-05-10T06:11:12;97697.63;;;6.92;68.67
75146;BME280;63641;46.526;24.612;2023-05-10T06:13:39;97702.84;;;7.21;68.24
75146;BME280;63641;46.526;24.612;2023-05-10T06:16:06;97694.44;;;7.39;67.64
75146;BME280;63641;46.526;24.612;2023-05-10T06:18:33;97699.91;;;7.71;67.28
75146;BME280;63641;46.526;24.612;2023-05-10T06:21:01;97699.41;;;8.02;66.86
75146;BME280;63641;46.526;24.612;2023-05-10T06:23:28;97699.13;;;8.30;66.08
75146;BME280;63641;46.526;24.612;2023-05-10T06:25:55;97695.34;;;8.58;65.36
75146;BME280;63641;46.526;24.612;2023-05-10T06:28:22;97688.72;;;8.81;64.89
75146;BME280;63641;46.526;24.612;2023-05-10T06:30:48;97688.88;;;9.12;64.08
75146;BME280;63641;46.526;24.612;2023-05-10T06:33:15;97697.16;;;9.48;63.53
75146;BME280;63641;46.526;24.612;2023-05-10T06:35:42;97687.50;;;9.72;62.60
75146;BME280;63641;46.526;24.612;2023-05-10T06:38:09;97692.44;;;10.06;62.00
75146;BME280;63641;46.526;24.612;2023-05-10T06:40:35;97691.38;;;10.43;61.43
75146;BME280;63641;46.526;24.612;2023-05-10T06:43:02;97693.50;;;10.71;61.03
75146;BME280;63641;46.526;24.612;2023-05-10T06:45:29;97695.91;;;11.08;60.74
75146;BME280;63641;46.526;24.612;2023-05-10T06:47:56;97697.13;;;11.36;60.02
75146;BME280;63641;46.526;24.612;2023-05-10T06:50:22;97690.50;;;11.68;59.37
75146;BME280;63641;46.526;24.612;2023-05-10T06:52:49;97675.78;;;11.90;58.15
75146;BME280;63641;46.526;24.612;2023-05-10T06:55:18;97675.00;;;12.23;57.34
75146;BME280;63641;46.526;24.612;2023-05-10T06:57:45;97677.97;;;12.56;56.76
75146;BME280;63641;46.526;24.612;2023-05-10T07:00:12;97682.31;;;12.86;55.74
75146;BME280;63641;46.526;24.612;2023-05-10T07:02:39;97671.44;;;13.10;55.25
75146;BME280;63641;46.526;24.612;2023-05-10T07:05:06;97664.69;;;13.32;54.65
75146;BME280;63641;46.526;24.612;2023-05-10T07:07:33;97667.03;;;13.62;54.30
75146;BME280;63641;46.526;24.612;2023-05-10T07:10:01;97669.78;;;13.81;53.49
75146;BME280;63641;46.526;24.612;2023-05-10T07:12:28;97667.88;;;14.00;53.12
75146;BME280;63641;46.526;24.612;2023-05-10T07:14:54;97661.81;;;14.22;52.63
75146;BME280;63641;46.526;24.612;2023-05-10T07:17:21;97650.88;;;14.41;52.03
75146;BME280;63641;46.526;24.612;2023-05-10T07:19:48;97667.44;;;14.45;51.10
75146;BME280;63641;46.526;24.612;2023-05-10T07:22:15;97659.25;;;14.45;51.32
75146;BME280;63641;46.526;24.612;2023-05-10T07:24:43;97655.19;;;14.61;50.81
75146;BME280;63641;46.526;24.612;2023-05-10T07:27:09;97655.13;;;14.66;50.21
75146;BME280;63641;46.526;24.612;2023-05-10T07:29:36;97671.59;;;14.89;49.72
75146;BME280;63641;46.526;24.612;2023-05-10T07:32:04;97666.78;;;15.13;49.39
75146;BME280;63641;46.526;24.612;2023-05-10T07:34:33;97657.78;;;15.27;48.51
75146;BME280;63641;46.526;24.612;2023-05-10T07:37:00;97666.84;;;15.50;47.91
75146;BME280;63641;46.526;24.612;2023-05-10T07:39:28;97669.81;;;15.67;46.89
75146;BME280;63641;46.526;24.612;2023-05-10T07:41:55;97664.72;;;15.88;46.74
75146;BME280;63641;46.526;24.612;2023-05-10T07:44:22;97663.56;;;16.03;46.35
75146;BME280;63641;46.526;24.612;2023-05-10T07:46:49;97657.41;;;16.19;46.38
75146;BME280;63641;46.526;24.612;2023-05-10T07:49:16;97657.22;;;16.38;45.82
75146;BME280;63641;46.526;24.612;2023-05-10T07:51:43;97657.25;;;16.61;44.92
75146;BME280;63641;46.526;24.612;2023-05-10T07:54:09;97657.06;;;16.80;45.18
75146;BME280;63641;46.526;24.612;2023-05-10T07:56:36;97661.16;;;17.00;45.06
75146;BME280;63641;46.526;24.612;2023-05-10T07:59:03;97654.81;;;17.13;44.54
75146;BME280;63641;46.526;24.612;2023-05-10T08:01:37;97660.72;;;17.06;44.89
75146;BME280;63641;46.526;24.612;2023-05-10T08:04:03;97661.50;;;17.07;43.76
75146;BME280;63641;46.526;24.612;2023-05-10T08:06:30;97663.59;;;17.01;43.36
75146;BME280;63641;46.526;24.612;2023-05-10T08:08:57;97662.19;;;17.12;43.08
75146;BME280;63641;46.526;24.612;2023-05-10T08:11:24;97653.41;;;17.33;43.02
75146;BME280;63641;46.526;24.612;2023-05-10T08:13:51;97643.31;;;17.51;42.79
75146;BME280;63641;46.526;24.612;2023-05-10T08:16:19;97633.53;;;17.67;42.05
75146;BME280;63641;46.526;24.612;2023-05-10T08:18:46;97647.94;;;17.90;41.98
75146;BME280;63641;46.526;24.612;2023-05-10T08:21:14;97640.03;;;17.97;41.29
75146;BME280;63641;46.526;24.612;2023-05-10T08:23:42;97657.59;;;18.14;40.71
75146;BME280;63641;46.526;24.612;2023-05-10T08:26:10;97655.50;;;18.28;40.21
75146;BME280;63641;46.526;24.612;2023-05-10T08:28:37;97644.84;;;18.35;39.87
75146;BME280;63641;46.526;24.612;2023-05-10T08:31:05;97641.00;;;18.45;39.75
75146;BME280;63641;46.526;24.612;2023-05-10T08:33:32;97658.88;;;18.42;39.97
75146;BME280;63641;46.526;24.612;2023-05-10T08:35:58;97653.56;;;18.46;40.06
75146;BME280;63641;46.526;24.612;2023-05-10T08:38:25;97647.56;;;18.44;40.13
75146;BME280;63641;46.526;24.612;2023-05-10T08:40:54;97652.13;;;18.31;39.97
75146;BME280;63641;46.526;24.612;2023-05-10T08:43:26;97657.25;;;18.15;40.06
75146;BME280;63641;46.526;24.612;2023-05-10T08:45:54;97651.16;;;18.01;39.89
75146;BME280;63641;46.526;24.612;2023-05-10T08:48:23;97639.09;;;17.93;39.78
75146;BME280;63641;46.526;24.612;2023-05-10T08:50:53;97638.41;;;17.96;39.42
75146;BME280;63641;46.526;24.612;2023-05-10T08:53:24;97643.72;;;17.93;39.65
75146;BME280;63641;46.526;24.612;2023-05-10T08:55:52;97635.53;;;17.84;39.59
75146;BME280;63641;46.526;24.612;2023-05-10T08:58:19;97636.66;;;17.92;39.93
75146;BME280;63641;46.526;24.612;2023-05-10T09:00:49;97638.75;;;18.03;39.57
75146;BME280;63641;46.526;24.612;2023-05-10T09:03:19;97642.28;;;17.86;39.15
75146;BME280;63641;46.526;24.612;2023-05-10T09:05:47;97626.78;;;17.73;38.84
75146;BME280;63641;46.526;24.612;2023-05-10T09:08:14;97635.84;;;17.91;38.75
75146;BME280;63641;46.526;24.612;2023-05-10T09:10:46;97641.47;;;18.21;38.66
75146;BME280;63641;46.526;24.612;2023-05-10T09:13:14;97629.56;;;18.34;38.16
75146;BME280;63641;46.526;24.612;2023-05-10T09:15:46;97638.56;;;18.43;38.15
75146;BME280;63641;46.526;24.612;2023-05-10T09:18:13;97632.09;;;18.56;37.21
75146;BME280;63641;46.526;24.612;2023-05-10T09:20:40;97631.41;;;18.68;37.31
75146;BME280;63641;46.526;24.612;2023-05-10T09:23:07;97619.66;;;18.76;37.50
75146;BME280;63641;46.526;24.612;2023-05-10T09:25:34;97625.94;;;18.77;36.60
75146;BME280;63641;46.526;24.612;2023-05-10T09:28:01;97630.97;;;18.57;36.35
75146;BME280;63641;46.526;24.612;2023-05-10T09:30:30;97620.22;;;18.26;36.16
75146;BME280;63641;46.526;24.612;2023-05-10T09:32:58;97621.50;;;17.85;36.41
75146;BME280;63641;46.526;24.612;2023-05-10T09:35:28;97627.53;;;17.48;36.87
75146;BME280;63641;46.526;24.612;2023-05-10T09:38:00;97619.28;;;17.30;37.24
75146;BME280;63641;46.526;24.612;2023-05-10T09:40:28;97618.03;;;17.36;37.15
75146;BME280;63641;46.526;24.612;2023-05-10T09:43:01;97613.41;;;17.63;36.64
75146;BME280;63641;46.526;24.612;2023-05-10T09:45:30;97608.28;;;17.96;36.14
75146;BME280;63641;46.526;24.612;2023-05-10T09:47:59;97606.84;;;18.25;36.20
75146;BME280;63641;46.526;24.612;2023-05-10T09:50:26;97597.59;;;18.55;35.97
75146;BME280;63641;46.526;24.612;2023-05-10T09:52:54;97604.78;;;18.86;35.99
75146;BME280;63641;46.526;24.612;2023-05-10T09:55:43;97599.13;;;19.21;34.91
75146;BME280;63641;46.526;24.612;2023-05-10T09:58:13;97588.53;;;19.40;34.30
75146;BME280;63641;46.526;24.612;2023-05-10T10:00:45;97593.91;;;19.58;34.08
75146;BME280;63641;46.526;24.612;2023-05-10T10:03:18;97597.25;;;19.72;32.91
75146;BME280;63641;46.526;24.612;2023-05-10T10:05:47;97594.28;;;19.77;32.58
75146;BME280;63641;46.526;24.612;2023-05-10T10:08:15;97583.38;;;19.89;32.80
75146;BME280;63641;46.526;24.612;2023-05-10T10:10:42;97592.88;;;20.13;33.44
75146;BME280;63641;46.526;24.612;2023-05-10T10:13:11;97588.25;;;20.25;33.57
75146;BME280;63641;46.526;24.612;2023-05-10T10:15:38;97587.25;;;20.42;33.24
75146;BME280;63641;46.526;24.612;2023-05-10T10:18:06;97581.44;;;20.44;33.54
75146;BME280;63641;46.526;24.612;2023-05-10T10:20:37;97584.06;;;20.40;34.60
75146;BME280;63641;46.526;24.612;2023-05-10T10:23:04;97595.69;;;20.58;34.66
75146;BME280;63641;46.526;24.612;2023-05-10T10:25:34;97575.91;;;20.77;34.61
75146;BME280;63641;46.526;24.612;2023-05-10T10:28:26;97579.34;;;20.86;32.88
75146;BME280;63641;46.526;24.612;2023-05-10T10:31:01;97574.56;;;20.95;33.15
75146;BME280;63641;46.526;24.612;2023-05-10T10:33:59;97579.72;;;20.97;33.53
75146;BME280;63641;46.526;24.612;2023-05-10T10:36:26;97572.56;;;20.84;33.50
75146;BME280;63641;46.526;24.612;2023-05-10T10:38:58;97568.50;;;20.44;33.10
75146;BME280;63641;46.526;24.612;2023-05-10T10:41:31;97584.09;;;19.98;33.24
75146;BME280;63641;46.526;24.612;2023-05-10T10:49:43;97574.91;;;19.52;32.61
75146;BME280;63641;46.526;24.612;2023-05-10T10:52:24;97580.38;;;19.31;32.76
75146;BME280;63641;46.526;24.612;2023-05-10T10:55:14;97570.16;;;19.11;33.09
75146;BME280;63641;46.526;24.612;2023-05-10T10:57:50;97558.63;;;18.97;33.12
75146;BME280;63641;46.526;24.612;2023-05-10T11:02:53;97563.19;;;18.84;33.75
75146;BME280;63641;46.526;24.612;2023-05-10T11:08:00;97561.75;;;19.16;33.89
75146;BME280;63641;46.526;24.612;2023-05-10T11:10:27;97565.00;;;19.10;33.56
75146;BME280;63641;46.526;24.612;2023-05-10T11:13:01;97567.69;;;19.18;33.62
75146;BME280;63641;46.526;24.612;2023-05-10T11:15:34;97545.22;;;19.25;33.73
75146;BME280;63641;46.526;24.612;2023-05-10T11:18:20;97553.44;;;19.75;33.43
75146;BME280;63641;46.526;24.612;2023-05-10T11:20:58;97561.47;;;20.01;32.74
75146;BME280;63641;46.526;24.612;2023-05-10T11:23:50;97552.84;;;20.24;32.26
75146;BME280;63641;46.526;24.612;2023-05-10T11:26:18;97547.50;;;20.40;32.58
75146;BME280;63641;46.526;24.612;2023-05-10T11:28:46;97540.31;;;20.47;31.69
75146;BME280;63641;46.526;24.612;2023-05-10T11:31:14;97544.72;;;20.61;31.90
75146;BME280;63641;46.526;24.612;2023-05-10T11:33:45;97548.91;;;20.46;32.14
75146;BME280;63641;46.526;24.612;2023-05-10T11:36:15;97539.09;;;20.24;32.43
75146;BME280;63641;46.526;24.612;2023-05-10T11:38:42;97532.78;;;20.11;32.62
75146;BME280;63641;46.526;24.612;2023-05-10T11:41:09;97532.00;;;19.90;32.37
75146;BME280;63641;46.526;24.612;2023-05-10T11:43:41;97532.94;;;19.52;32.19
75146;BME280;63641;46.526;24.612;2023-05-10T11:46:10;97524.94;;;19.17;32.53
75146;BME280;63641;46.526;24.612;2023-05-10T11:48:42;97529.47;;;18.83;32.87
75146;BME280;63641;46.526;24.612;2023-05-10T11:51:10;97520.53;;;18.57;33.04
75146;BME280;63641;46.526;24.612;2023-05-10T11:53:37;97527.22;;;18.39;33.28
75146;BME280;63641;46.526;24.612;2023-05-10T11:56:11;97539.47;;;18.41;33.42
75146;BME280;63641;46.526;24.612;2023-05-10T11:58:39;97530.41;;;18.49;33.29
75146;BME280;63641;46.526;24.612;2023-05-10T12:01:07;97530.94;;;18.81;33.22
75146;BME280;63641;46.526;24.612;2023-05-10T15:12:30;97426.13;;;18.07;35.55
75146;BME280;63641;46.526;24.612;2023-05-10T15:14:57;97433.38;;;18.12;35.22
75146;BME280;63641;46.526;24.612;2023-05-10T15:17:24;97428.50;;;18.18;35.03
75146;BME280;63641;46.526;24.612;2023-05-10T15:19:50;97403.41;;;18.07;34.64
75146;BME280;63641;46.526;24.612;2023-05-10T15:22:17;97437.66;;;18.22;35.17
75146;BME280;63641;46.526;24.612;2023-05-10T15:24:44;97432.03;;;18.18;34.64
75146;BME280;63641;46.526;24.612;2023-05-10T15:27:11;97426.13;;;18.07;34.76
75146;BME280;63641;46.526;24.612;2023-05-10T15:29:37;97437.06;;;18.07;34.63
75146;BME280;63641;46.526;24.612;2023-05-10T15:32:04;97422.63;;;17.98;34.83
75146;BME280;63641;46.526;24.612;2023-05-10T15:34:31;97442.78;;;17.94;34.43
75146;BME280;63641;46.526;24.612;2023-05-10T15:37:01;97435.22;;;17.82;34.53
75146;BME280;63641;46.526;24.612;2023-05-10T15:39:27;97432.81;;;17.72;34.84
75146;BME280;63641;46.526;24.612;2023-05-10T15:41:54;97419.31;;;17.58;34.76
75146;BME280;63641;46.526;24.612;2023-05-10T15:44:21;97426.22;;;17.55;34.66
75146;BME280;63641;46.526;24.612;2023-05-10T15:46:48;97421.91;;;17.46;34.71
75146;BME280;63641;46.526;24.612;2023-05-10T15:49:16;97431.22;;;17.45;34.89
75146;BME280;63641;46.526;24.612;2023-05-10T15:51:43;97430.28;;;17.32;34.96
75146;BME280;63641;46.526;24.612;2023-05-10T15:54:10;97434.78;;;17.28;35.45
75146;BME280;63641;46.526;24.612;2023-05-10T15:56:37;97440.41;;;17.23;36.21
75146;BME280;63641;46.526;24.612;2023-05-10T15:59:03;97433.34;;;17.13;36.36
75146;BME280;63641;46.526;24.612;2023-05-10T16:01:31;97428.81;;;17.08;36.43
75146;BME280;63641;46.526;24.612;2023-05-10T16:03:58;97429.31;;;17.02;36.73
75146;BME280;63641;46.526;24.612;2023-05-10T16:06:25;97426.06;;;16.91;37.03
75146;BME280;63641;46.526;24.612;2023-05-10T16:08:52;97421.41;;;16.83;37.11
75146;BME280;63641;46.526;24.612;2023-05-10T16:11:20;97422.84;;;16.80;37.52
75146;BME280;63641;46.526;24.612;2023-05-10T16:13:47;97427.00;;;16.78;37.58
75146;BME280;63641;46.526;24.612;2023-05-10T16:16:13;97423.44;;;16.69;37.99
75146;BME280;63641;46.526;24.612;2023-05-10T16:18:40;97425.03;;;16.61;38.38
75146;BME280;63641;46.526;24.612;2023-05-10T16:21:07;97412.97;;;16.53;38.20
75146;BME280;63641;46.526;24.612;2023-05-10T16:23:33;97403.59;;;16.37;38.24
75146;BME280;63641;46.526;24.612;2023-05-10T16:26:00;97416.09;;;16.38;38.56
75146;BME280;63641;46.526;24.612;2023-05-10T16:28:27;97421.28;;;16.39;38.65
75146;BME280;63641;46.526;24.612;2023-05-10T16:30:54;97437.47;;;16.36;38.90
75146;BME280;63641;46.526;24.612;2023-05-10T16:33:21;97435.72;;;16.31;38.77